world map with HLB marked

HLB - Airport

This information may not be accurate or current and is not valid for navigation or flight planning. No warranty of fitness for any purpose is made or implied.

flag of Indianaflag of United States

Donate via PayPal

Additional information is available on the NEW Great Circle Mapper

Location
City:  Batesville, Indiana, United States
ICAO / IATA:KHLB / HLB
FAA:HLB

Details
Type:Airport (Airfield)
Use:Public/Civil
Latitude:39°20'35"N (39.343111)
Longitude:85°15'30"W (-85.258416)
Datum:WGS 1984
Elevation:975 ft (297 m)
Runways:1
Longest:5933 × 100 ft (1808 × 30.5 m)

Weather
METAR:KHLB  041415Z AUTO 19005G11KT 10SM OVC095 09/09 A2991 RMK A01

Related Locations
Nearby:
Farthest:YAUG: 11262 mi / 18124 km
Augusta [Augusta Airport], WA, AU

Find:

   beyond  
but within

Other Information
Maps:
Links:
Sources:

  

Sectional Chart

Flight Planning
at skyvector.com

 


Great Circle Mapper   Great Circle Mapper
Great Circle Mapper FAQ   Great Circle Mapper FAQ
  Karl's Home Page
KLSē   KLSē Home
   GC on Facebook
Airlines of the World   Airlines of the World
Donate via PayPal


Copyright © 2004-2020, Karl L. Swartz. All rights reserved.
All trademarks mentioned herein belong to their respective owners.

Please see credits for attribution and copyright information.

Karl Swartz <karl@kls2.com>
  Powered by FreeBSD
Valid HTML 4.01!
Labeled with ICRA
hCard Microformat
Geo Microformat